Time;durP1;ratioP1;P1;durP2;ratioP2;P2;SDS_P1;SDS_P2;PMS_P1;PMS_P2;Temp;Humidity;BMP_temperature;BMP_pressure;BME280_temperature;BME280_humidity;BME280_pressure;Samples;Min_cycle;Max_cycle;Signal;HPM_P1;HPM_P2
2022/01/14 00:02:08;;;;;;;21.42;9.02;;;;;;;-5.61;61.25;95123.38;5024836;28;20028;-81
2022/01/14 00:04:34;;;;;;;20.67;8.82;;;;;;;-5.52;61.23;95121.47;5025977;28;20328;-81
2022/01/14 00:07:00;;;;;;;21.63;9.80;;;;;;;-5.54;61.05;95126.84;5026044;28;20022;-81
2022/01/14 00:09:26;;;;;;;25.48;8.93;;;;;;;-5.44;60.74;95123.97;5025787;28;20217;-81
2022/01/14 00:11:57;;;;;;;23.05;8.27;;;;;;;-5.42;61.01;95126.38;5025778;28;20324;-80
2022/01/14 00:14:37;;;;;;;26.45;8.60;;;;;;;-5.39;60.71;95136.41;5026072;28;20022;-80
2022/01/14 00:17:08;;;;;;;27.52;9.52;;;;;;;-5.39;61.17;95137.22;5025841;28;20049;-81
2022/01/14 00:19:37;;;;;;;25.45;9.93;;;;;;;-5.36;60.91;95141.25;5025635;28;20080;-81
2022/01/14 00:22:11;;;;;;;22.00;9.52;;;;;;;-5.26;60.29;95141.75;5025606;28;20025;-81
2022/01/14 00:35:24;;;;;;;32.00;10.40;;;;;;;-5.00;59.04;95164.66;5025665;28;20277;-83
2022/01/14 00:37:49;;;;;;;22.77;8.68;;;;;;;-4.92;58.49;95161.94;5041020;28;20022;-83
2022/01/14 00:40:15;;;;;;;17.25;6.95;;;;;;;-4.86;58.29;95157.78;5024554;28;20033;-83
2022/01/14 00:42:40;;;;;;;16.40;7.55;;;;;;;-4.83;58.27;95157.41;5025705;28;20259;-83
2022/01/14 00:45:07;;;;;;;21.95;8.48;;;;;;;-4.76;57.84;95160.88;5040892;28;20034;-82
2022/01/14 00:47:37;;;;;;;24.85;9.68;;;;;;;-4.77;57.21;95140.25;5025658;28;20025;-83
2022/01/14 00:50:18;;;;;;;19.60;7.97;;;;;;;-4.77;57.46;95146.25;5025407;28;20022;-83
2022/01/14 00:52:44;;;;;;;19.50;7.63;;;;;;;-4.75;57.39;95149.47;5025360;28;20039;-83
2022/01/14 00:55:14;;;;;;;21.83;7.78;;;;;;;-4.76;57.69;95160.88;5024115;28;20018;-83
2022/01/14 01:00:31;;;;;;;20.02;8.05;;;;;;;-4.83;57.43;95165.22;5025149;28;20053;-83
2022/01/14 01:02:57;;;;;;;17.23;7.38;;;;;;;-4.88;57.19;95157.97;5024511;28;20116;-83
2022/01/14 01:05:25;;;;;;;25.25;8.73;;;;;;;-4.78;56.58;95160.28;5040588;28;20189;-83
2022/01/14 01:08:12;;;;;;;21.13;8.38;;;;;;;-4.82;56.62;95169.44;5025177;28;20067;-83
2022/01/14 01:10:47;;;;;;;20.52;8.57;;;;;;;-4.78;56.88;95155.06;5024862;28;20205;-83
2022/01/14 01:13:35;;;;;;;19.92;8.07;;;;;;;-4.73;57.25;95138.91;5024879;28;20067;-84
2022/01/14 01:16:00;;;;;;;22.23;7.50;;;;;;;-4.78;55.31;95133.44;5024919;28;20078;-83
2022/01/14 01:18:26;;;;;;;20.42;6.97;;;;;;;-4.71;55.56;95123.91;5024880;28;20025;-83
2022/01/14 01:20:52;;;;;;;20.42;6.95;;;;;;;-4.70;55.87;95118.53;5024763;28;20021;-83
2022/01/14 01:23:18;;;;;;;16.85;7.22;;;;;;;-4.61;54.99;95100.19;5024770;28;20021;-83
2022/01/14 01:25:49;;;;;;;10.50;5.72;;;;;;;-4.60;54.29;95107.78;5024895;28;20064;-83
2022/01/14 01:28:14;;;;;;;16.67;6.78;;;;;;;-4.61;54.42;95102.78;5024889;28;20017;-83
2022/01/14 01:30:52;;;;;;;20.63;7.50;;;;;;;-4.52;53.86;95110.28;5024597;28;20034;-83
2022/01/14 01:33:18;;;;;;;18.27;6.75;;;;;;;-4.47;54.02;95120.09;5024841;28;20025;-83
2022/01/14 01:35:44;;;;;;;18.73;7.22;;;;;;;-4.53;53.44;95115.66;5024654;28;20056;-79
2022/01/14 01:38:16;;;;;;;21.35;7.18;;;;;;;-4.48;53.83;95108.06;5024153;28;20304;-78
2022/01/14 01:40:47;;;;;;;17.60;7.20;;;;;;;-4.39;53.35;95104.34;5024229;28;20418;-78
2022/01/14 01:43:13;;;;;;;17.90;6.68;;;;;;;-4.37;53.17;95110.16;5024157;28;20018;-78
2022/01/14 01:45:39;;;;;;;16.08;7.32;;;;;;;-4.35;53.07;95108.19;5039477;28;20216;-78
2022/01/14 01:48:05;;;;;;;16.55;6.43;;;;;;;-4.33;53.32;95101.00;5023978;28;20018;-78
2022/01/14 01:50:32;;;;;;;23.73;7.68;;;;;;;-4.32;52.92;95088.78;5024033;28;20096;-78
2022/01/14 01:52:58;;;;;;;19.27;6.97;;;;;;;-4.36;53.38;95101.34;5023944;28;20018;-78
2022/01/14 01:55:24;;;;;;;15.73;6.45;;;;;;;-4.34;53.82;95094.16;5023856;28;20017;-78
2022/01/14 01:57:51;;;;;;;12.55;5.75;;;;;;;-4.40;53.44;95094.91;5023985;28;20041;-77
2022/01/14 02:00:21;;;;;;;19.50;7.22;;;;;;;-4.46;53.86;95087.88;5023821;28;20093;-80
2022/01/14 02:02:48;;;;;;;18.13;7.32;;;;;;;-4.47;53.53;95088.88;5023880;28;20021;-80
2022/01/14 02:05:15;;;;;;;20.10;7.25;;;;;;;-4.45;54.07;95092.09;5023889;28;20025;-80
2022/01/14 02:07:41;;;;;;;18.75;6.38;;;;;;;-4.51;52.79;95085.84;5023579;28;20193;-80
2022/01/14 02:10:07;;;;;;;17.40;6.47;;;;;;;-4.44;53.18;95078.91;5023656;28;20072;-80
2022/01/14 02:12:37;;;;;;;19.02;7.35;;;;;;;-4.35;52.11;95060.53;5023571;28;20375;-80
2022/01/14 02:15:26;;;;;;;16.80;6.45;;;;;;;-4.33;51.68;95054.13;5022854;28;20041;-80
2022/01/14 02:18:23;;;;;;;15.32;5.65;;;;;;;-4.21;50.67;95035.34;5023367;28;20048;-80
2022/01/14 02:23:27;;;;;;;15.60;6.47;;;;;;;-4.16;50.53;95044.22;5023457;28;20045;-80
2022/01/14 02:25:52;;;;;;;14.27;5.78;;;;;;;-4.11;50.65;95035.81;5022339;28;20315;-80
2022/01/14 02:28:18;;;;;;;17.30;6.72;;;;;;;-4.08;50.46;95027.63;5023577;28;20075;-80
2022/01/14 02:30:46;;;;;;;15.60;5.70;;;;;;;-4.07;50.10;95042.25;5023312;28;20026;-80
2022/01/14 02:33:14;;;;;;;14.20;5.45;;;;;;;-4.05;50.37;95045.44;5023126;28;20025;-79
2022/01/14 02:35:41;;;;;;;21.75;6.30;;;;;;;-4.03;50.23;95035.66;5023368;28;20026;-79
2022/01/14 02:38:10;;;;;;;14.82;5.72;;;;;;;-3.99;50.52;95042.06;5023389;28;20022;-79
2022/01/14 02:40:36;;;;;;;14.18;5.57;;;;;;;-3.98;50.30;95040.31;5023181;28;20289;-79
2022/01/14 02:43:02;;;;;;;14.60;6.28;;;;;;;-4.01;50.46;95041.47;5021873;28;20216;-79
2022/01/14 02:45:33;;;;;;;14.10;5.35;;;;;;;-3.98;50.62;95043.69;5023087;28;20022;-79
2022/01/14 02:48:00;;;;;;;20.40;7.57;;;;;;;-4.01;50.99;95038.06;5023066;28;20334;-79
2022/01/14 02:50:27;;;;;;;15.40;6.60;;;;;;;-4.01;50.56;95031.06;5023095;28;20101;-79
2022/01/14 02:55:30;;;;;;;15.82;6.43;;;;;;;-3.96;50.13;95036.50;5022988;28;20326;-79
2022/01/14 02:57:58;;;;;;;11.85;5.95;;;;;;;-3.93;49.31;95037.91;5022899;28;20030;-79
2022/01/14 03:00:28;;;;;;;12.98;5.78;;;;;;;-3.87;48.25;95019.72;5022735;28;20072;-79
2022/01/14 03:02:54;;;;;;;20.58;6.82;;;;;;;-3.85;49.09;95016.91;5023671;28;20026;-79
2022/01/14 03:05:20;;;;;;;16.40;6.25;;;;;;;-3.87;48.72;95016.28;5023175;28;20079;-80
2022/01/14 03:07:47;;;;;;;17.25;6.95;;;;;;;-3.84;48.76;95008.09;5022728;28;20386;-79
2022/01/14 03:10:15;;;;;;;16.70;7.00;;;;;;;-3.82;48.45;94998.28;5022942;28;20022;-79
2022/01/14 03:12:42;;;;;;;18.02;6.47;;;;;;;-3.89;48.17;95002.66;5022848;28;20046;-78
2022/01/14 03:15:09;;;;;;;20.42;6.47;;;;;;;-3.83;48.76;95002.69;5022677;28;20028;-78
2022/01/14 03:17:35;;;;;;;14.02;5.38;;;;;;;-3.76;48.73;94991.50;5022748;28;20320;-78
2022/01/14 03:20:02;;;;;;;14.68;6.10;;;;;;;-3.76;48.92;94991.50;5022532;28;20022;-78
2022/01/14 03:22:33;;;;;;;14.95;6.47;;;;;;;-3.71;47.48;94983.88;5022434;28;20026;-80
2022/01/14 03:27:43;;;;;;;11.68;5.60;;;;;;;-3.62;47.32;94961.88;5029173;28;20037;-81
2022/01/14 03:30:09;;;;;;;12.98;5.55;;;;;;;-3.57;47.46;94949.03;5029230;28;20022;-81
2022/01/14 03:32:34;;;;;;;13.75;4.47;;;;;;;-3.55;47.52;94954.84;5044454;28;20021;-81
2022/01/14 03:35:00;;;;;;;12.95;5.07;;;;;;;-3.49;48.11;94945.44;5027701;28;20013;-81
2022/01/14 03:37:25;;;;;;;13.65;5.10;;;;;;;-3.46;47.73;94976.31;5029286;28;20060;-81
2022/01/14 03:39:51;;;;;;;13.88;4.90;;;;;;;-3.43;47.32;94966.28;5029176;28;20033;-80
2022/01/14 03:42:17;;;;;;;10.77;4.45;;;;;;;-3.46;47.22;94965.88;5029040;28;20080;-79
2022/01/14 03:44:42;;;;;;;16.85;6.05;;;;;;;-3.55;47.10;94954.84;5029011;28;20064;-80
2022/01/14 03:47:07;;;;;;;10.63;4.18;;;;;;;-3.52;46.17;94951.84;5028861;28;20308;-79
2022/01/14 03:49:33;;;;;;;15.02;5.43;;;;;;;-3.50;47.01;94949.84;5027719;28;20026;-79
2022/01/14 03:51:58;;;;;;;14.50;5.65;;;;;;;-3.45;46.37;94936.22;5028984;28;20045;-80
2022/01/14 03:54:24;;;;;;;15.20;5.50;;;;;;;-3.36;45.76;94940.22;5028804;28;20026;-79
2022/01/14 03:56:50;;;;;;;18.30;5.13;;;;;;;-3.34;46.61;94964.28;5028874;28;20060;-80
2022/01/14 03:59:15;;;;;;;20.60;5.90;;;;;;;-3.27;45.69;94959.91;5028601;28;20026;-79
2022/01/14 04:01:40;;;;;;;12.75;4.43;;;;;;;-3.23;45.50;94944.66;5028847;28;20308;-79
2022/01/14 04:04:06;;;;;;;14.82;4.60;;;;;;;-3.24;45.79;94948.25;5028749;28;20030;-79
2022/01/14 04:06:32;;;;;;;14.23;6.03;;;;;;;-3.30;46.95;94959.47;5029069;28;20076;-79
2022/01/14 04:08:57;;;;;;;15.77;6.07;;;;;;;-3.37;47.35;94950.88;5028732;28;20022;-79
2022/01/14 04:11:23;;;;;;;14.55;5.22;;;;;;;-3.45;47.70;94957.88;5028852;28;20022;-82
2022/01/14 04:13:54;;;;;;;14.90;6.35;;;;;;;-3.44;48.15;94959.50;5028841;28;20057;-81
2022/01/14 04:16:21;;;;;;;16.10;5.90;;;;;;;-3.47;48.08;94936.41;5028920;28;20021;-81
2022/01/14 04:18:51;;;;;;;16.73;6.88;;;;;;;-3.48;49.00;94934.00;5027461;28;20390;-81
2022/01/14 04:21:18;;;;;;;15.00;5.60;;;;;;;-3.49;49.16;94935.81;5028632;28;20308;-81
2022/01/14 04:23:43;;;;;;;20.48;6.88;;;;;;;-3.49;49.14;94917.56;5028739;28;20017;-81
2022/01/14 04:26:10;;;;;;;20.48;8.15;;;;;;;-3.53;50.33;94924.19;5028728;28;20246;-81
2022/01/14 04:28:35;;;;;;;26.27;9.50;;;;;;;-3.63;50.48;94936.78;5028870;28;20013;-82
2022/01/14 04:31:03;;;;;;;16.13;5.88;;;;;;;-3.68;50.33;94934.78;5028638;28;20268;-82
2022/01/14 04:33:32;;;;;;;16.50;6.22;;;;;;;-3.61;50.15;94926.97;5028329;28;20027;-82
2022/01/14 04:35:58;;;;;;;17.98;6.47;;;;;;;-3.63;50.49;94934.97;5028633;28;20026;-81
2022/01/14 04:38:25;;;;;;;18.10;8.73;;;;;;;-3.69;50.89;94930.56;5023960;28;20095;-82
2022/01/14 04:40:51;;;;;;;17.38;6.90;;;;;;;-3.74;51.25;94938.19;5025881;28;20029;-82
2022/01/14 04:43:19;;;;;;;14.43;5.75;;;;;;;-3.70;51.52;94926.38;5040722;28;20346;-81
2022/01/14 04:46:02;;;;;;;23.08;8.30;;;;;;;-3.67;51.54;94917.34;5025066;28;20298;-81
2022/01/14 04:48:30;;;;;;;16.52;7.18;;;;;;;-3.66;51.76;94918.97;5025371;28;20026;-80
2022/01/14 04:50:56;;;;;;;18.90;7.30;;;;;;;-3.71;52.53;94924.75;5025231;28;20255;-80
2022/01/14 04:53:22;;;;;;;18.33;6.68;;;;;;;-3.76;52.65;94921.94;5025186;28;20052;-80
2022/01/14 04:55:49;;;;;;;18.38;6.85;;;;;;;-3.81;52.75;94923.53;5025006;28;20328;-80
2022/01/14 04:58:15;;;;;;;23.85;8.65;;;;;;;-3.88;53.19;94929.53;5024900;28;20033;-80
2022/01/14 05:00:40;;;;;;;16.98;7.95;;;;;;;-3.88;53.56;94937.34;5023582;28;20033;-80
2022/01/14 05:03:06;;;;;;;23.70;9.93;;;;;;;-3.95;53.77;94936.50;5025055;28;20025;-80
2022/01/14 05:05:35;;;;;;;29.65;10.00;;;;;;;-3.93;54.16;94918.09;5024868;28;20037;-82
2022/01/14 05:08:00;;;;;;;20.95;8.35;;;;;;;-3.94;54.47;94917.28;5024904;28;20025;-81
2022/01/14 05:12:55;;;;;;;21.10;9.93;;;;;;;-3.87;54.36;94912.09;5024489;28;20217;-79
2022/01/14 05:15:21;;;;;;;23.65;9.63;;;;;;;-3.87;54.41;94910.31;5023459;28;20052;-79
2022/01/14 05:17:48;;;;;;;19.23;7.88;;;;;;;-3.79;54.80;94904.09;5024571;28;20022;-79
2022/01/14 05:20:15;;;;;;;21.00;8.25;;;;;;;-3.77;55.42;94917.72;5039896;28;20088;-79
2022/01/14 05:22:41;;;;;;;17.02;5.60;;;;;;;-3.61;57.60;94921.75;5024540;28;20256;-79
2022/01/14 05:25:08;;;;;;;12.93;3.53;;;;;;;-3.31;59.41;94918.78;5024391;28;20018;-78
2022/01/14 05:27:37;;;;;;;10.20;4.18;;;;;;;-3.09;58.66;94917.56;5024391;28;20017;-80
2022/01/14 05:30:04;;;;;;;13.70;6.13;;;;;;;-2.96;57.47;94923.78;5024199;28;20022;-80
2022/01/14 05:32:30;;;;;;;18.80;8.80;;;;;;;-3.03;58.13;94919.38;5024350;28;20060;-80
2022/01/14 05:34:55;;;;;;;12.02;5.38;;;;;;;-2.90;58.65;94917.75;5024319;28;20014;-80
2022/01/14 05:37:21;;;;;;;9.52;4.13;;;;;;;-2.83;58.84;94916.75;5024380;28;20041;-79
2022/01/14 05:39:46;;;;;;;8.70;3.75;;;;;;;-2.77;58.30;94920.31;5039375;28;20018;-79
2022/01/14 05:42:12;;;;;;;9.57;4.85;;;;;;;-2.68;57.37;94910.50;5023975;28;20018;-78
2022/01/14 05:44:38;;;;;;;13.80;5.72;;;;;;;-2.72;57.92;94915.31;5024014;28;20024;-78
2022/01/14 05:47:05;;;;;;;16.08;6.97;;;;;;;-2.78;56.96;94902.28;5024256;28;20227;-78
2022/01/14 05:49:30;;;;;;;23.15;9.07;;;;;;;-2.87;55.15;94899.91;5023736;28;20021;-78
2022/01/14 05:51:56;;;;;;;21.15;8.88;;;;;;;-3.09;57.19;94898.53;5022853;28;20029;-78
2022/01/14 05:54:22;;;;;;;10.52;5.15;;;;;;;-3.14;61.11;94896.50;5023878;28;20216;-78
2022/01/14 05:56:48;;;;;;;28.45;10.50;;;;;;;-3.13;57.35;94898.13;5022820;28;20041;-78
2022/01/14 05:59:14;;;;;;;29.52;10.63;;;;;;;-3.12;56.81;94894.50;5023866;28;20109;-79
2022/01/14 06:01:41;;;;;;;28.23;10.43;;;;;;;-3.20;57.55;94888.69;5023780;28;20029;-79
2022/01/14 06:04:07;;;;;;;23.00;9.68;;;;;;;-3.20;58.13;94886.88;5023537;28;20029;-77
2022/01/14 06:06:33;;;;;;;27.77;11.65;;;;;;;-3.26;57.59;94878.06;5023701;28;20160;-80
2022/01/14 06:08:59;;;;;;;40.50;12.05;;;;;;;-3.28;56.88;94879.25;5023855;28;20041;-80
2022/01/14 06:11:25;;;;;;;31.98;11.55;;;;;;;-3.44;56.97;94878.69;5023720;28;20328;-80
2022/01/14 06:13:51;;;;;;;35.72;11.32;;;;;;;-3.47;57.20;94897.31;5023580;28;20042;-79
2022/01/14 06:16:16;;;;;;;28.15;11.77;;;;;;;-3.52;57.53;94878.06;5022369;28;20075;-80
2022/01/14 06:18:43;;;;;;;38.65;11.52;;;;;;;-3.48;57.28;94894.91;5023250;28;20033;-84
2022/01/14 06:21:08;;;;;;;43.42;10.73;;;;;;;-3.47;58.13;94888.69;5023521;28;20125;-80
2022/01/14 06:23:34;;;;;;;36.92;12.35;;;;;;;-3.41;57.89;94890.50;5023429;28;20029;-80
2022/01/14 06:26:00;;;;;;;33.90;12.60;;;;;;;-3.45;57.53;94884.09;5023369;28;20109;-80
2022/01/14 06:28:26;;;;;;;39.50;13.40;;;;;;;-3.39;57.41;94887.72;5038728;28;20026;-78
2022/01/14 06:30:51;;;;;;;39.70;14.00;;;;;;;-3.37;57.72;94883.09;5023283;28;20120;-78
2022/01/14 06:33:17;;;;;;;47.08;12.93;;;;;;;-3.36;58.57;94877.66;5023289;28;20036;-77
2022/01/14 06:35:42;;;;;;;31.95;12.20;;;;;;;-3.28;59.25;94872.25;5023312;28;20026;-77
2022/01/14 06:38:08;;;;;;;36.70;12.95;;;;;;;-3.20;60.02;94873.03;5023267;28;20072;-77
2022/01/14 06:40:34;;;;;;;26.98;11.43;;;;;;;-3.18;60.77;94878.84;5022720;28;20025;-77
2022/01/14 06:43:01;;;;;;;25.38;10.75;;;;;;;-3.08;61.07;94885.25;5021587;28;20036;-77
2022/01/14 06:45:27;;;;;;;28.75;10.95;;;;;;;-2.99;61.50;94892.88;5023003;28;20034;-79
2022/01/14 06:47:52;;;;;;;31.50;12.13;;;;;;;-2.92;62.37;94893.69;5022939;28;20036;-78
2022/01/14 06:50:18;;;;;;;25.90;11.25;;;;;;;-2.80;64.77;94886.81;5022977;28;20036;-76
2022/01/14 06:52:44;;;;;;;20.45;8.82;;;;;;;-2.58;67.27;94878.75;5023081;28;20025;-82
2022/01/14 06:55:09;;;;;;;21.33;9.77;;;;;;;-2.46;67.13;94871.88;5022772;28;20033;-82
2022/01/14 06:57:35;;;;;;;26.60;12.38;;;;;;;-2.30;65.53;94875.81;5022528;28;20076;-80
2022/01/14 07:00:07;;;;;;;27.92;10.50;;;;;;;-2.26;66.01;94856.91;5021995;28;20132;-81
2022/01/14 07:02:32;;;;;;;20.67;8.48;;;;;;;-2.18;66.27;94858.47;5022488;28;20092;-82
2022/01/14 07:04:58;;;;;;;24.13;11.77;;;;;;;-2.10;67.47;94849.59;5022975;28;20026;-79
2022/01/14 07:07:23;;;;;;;19.50;9.05;;;;;;;-1.97;66.57;94848.72;5022877;28;20055;-79
2022/01/14 07:09:58;;;;;;;24.33;10.07;;;;;;;-1.77;68.13;94845.97;5022917;28;20030;-78
2022/01/14 07:12:23;;;;;;;12.00;5.35;;;;;;;-1.61;70.37;94853.28;5022875;28;20354;-80
2022/01/14 07:14:49;;;;;;;9.52;4.20;;;;;;;-1.49;69.96;94835.09;5022641;28;20076;-80
2022/01/14 07:17:14;;;;;;;10.05;5.63;;;;;;;-1.45;70.28;94831.84;5022637;28;20092;-82
2022/01/14 07:19:40;;;;;;;8.68;3.33;;;;;;;-1.44;70.59;94830.84;5022256;28;20224;-81
2022/01/14 07:22:05;;;;;;;10.43;4.93;;;;;;;-1.25;69.94;94820.41;5022165;28;20068;-81
2022/01/14 07:24:31;;;;;;;11.25;4.93;;;;;;;-1.14;70.68;94826.75;5022428;28;20030;-85
2022/01/14 07:26:56;;;;;;;12.85;5.63;;;;;;;-1.12;69.80;94843.84;5022687;28;20034;-82
2022/01/14 07:29:21;;;;;;;10.73;5.03;;;;;;;-1.01;69.57;94824.81;5022500;28;20367;-74
2022/01/14 07:31:47;;;;;;;5.97;3.03;;;;;;;-0.98;69.47;94849.75;5022338;28;20029;-73
2022/01/14 07:34:12;;;;;;;8.05;3.75;;;;;;;-0.99;69.72;94842.13;5038236;28;20038;-75
2022/01/14 07:36:38;;;;;;;8.85;4.63;;;;;;;-0.96;69.65;94828.59;5022724;28;20036;-74
2022/01/14 07:39:06;;;;;;;6.28;2.95;;;;;;;-0.92;70.08;94829.75;5022389;28;20041;-74
2022/01/14 07:41:32;;;;;;;9.65;4.05;;;;;;;-0.92;69.23;94835.00;5022287;28;20049;-74
2022/01/14 07:43:57;;;;;;;9.07;3.88;;;;;;;-0.82;69.71;94820.38;5022485;28;20235;-74
2022/01/14 07:46:23;;;;;;;8.88;4.22;;;;;;;-0.74;68.97;94815.88;5022338;28;20026;-74
2022/01/14 07:48:48;;;;;;;8.23;3.58;;;;;;;-0.77;69.66;94847.72;5022112;28;20025;-74
2022/01/14 07:51:14;;;;;;;7.18;2.70;;;;;;;-0.71;69.82;94800.53;5037509;28;20064;-74
2022/01/14 07:53:40;;;;;;;12.80;4.63;;;;;;;-0.48;69.51;94812.16;5022494;28;20033;-75
2022/01/14 07:56:07;;;;;;;6.55;2.92;;;;;;;-0.49;68.80;94807.94;5022251;28;20064;-74
2022/01/14 07:58:33;;;;;;;15.38;3.67;;;;;;;-0.50;69.16;94809.75;5022177;28;20093;-76
2022/01/14 08:00:59;;;;;;;6.90;3.35;;;;;;;-0.44;69.75;94805.47;5022241;28;20060;-75
2022/01/14 08:03:24;;;;;;;5.40;3.38;;;;;;;-0.41;69.39;94811.06;5022280;28;20029;-74
2022/01/14 08:05:50;;;;;;;4.57;2.45;;;;;;;-0.36;69.03;94796.50;5021870;28;20081;-75
2022/01/14 08:08:16;;;;;;;6.18;3.17;;;;;;;-0.36;69.04;94797.28;5021924;28;20026;-75
2022/01/14 08:10:41;;;;;;;10.23;4.72;;;;;;;-0.24;68.32;94798.13;5022270;28;20066;-76
2022/01/14 08:13:07;;;;;;;10.93;4.47;;;;;;;-0.20;69.05;94780.16;5023348;28;20057;-76
2022/01/14 08:15:32;;;;;;;9.35;4.28;;;;;;;-0.17;68.12;94789.38;5025924;28;20089;-71
2022/01/14 08:18:00;;;;;;;9.82;4.22;;;;;;;-0.16;68.18;94793.59;5024978;28;20224;-78
2022/01/14 08:20:26;;;;;;;8.75;3.30;;;;;;;-0.15;68.08;94803.06;5025688;28;20025;-77
2022/01/14 08:22:51;;;;;;;7.95;3.38;;;;;;;-0.19;68.31;94791.44;5026024;28;20045;-79
2022/01/14 08:25:16;;;;;;;6.00;3.25;;;;;;;-0.03;67.64;94788.97;5025589;28;20362;-76
2022/01/14 08:27:42;;;;;;;8.65;4.57;;;;;;;0.02;67.28;94769.16;5025700;28;20325;-76
2022/01/14 08:30:08;;;;;;;9.85;3.50;;;;;;;-0.11;67.30;94772.78;5025383;28;20370;-77
2022/01/14 08:32:33;;;;;;;12.63;4.45;;;;;;;-0.17;67.14;94813.75;5025433;28;20026;-76
2022/01/14 08:34:59;;;;;;;9.30;3.92;;;;;;;-0.11;67.25;94773.56;5025594;28;20252;-78
2022/01/14 08:37:24;;;;;;;4.55;2.88;;;;;;;-0.13;68.56;94756.47;5025602;28;20021;-81
2022/01/14 08:39:50;;;;;;;11.25;4.20;;;;;;;-0.12;67.88;94765.91;5025460;28;20224;-82
2022/01/14 08:42:16;;;;;;;7.32;3.40;;;;;;;-0.11;67.04;94778.81;5025415;28;20026;-81
2022/01/14 08:44:41;;;;;;;8.38;3.65;;;;;;;-0.19;67.00;94765.22;5025429;28;20220;-77
2022/01/14 08:47:09;;;;;;;4.43;2.55;;;;;;;-0.31;67.88;94771.22;5025411;28;20021;-78
2022/01/14 08:49:44;;;;;;;5.53;2.58;;;;;;;-0.24;68.32;94758.84;5025093;28;20022;-79
2022/01/14 08:52:11;;;;;;;5.10;3.08;;;;;;;-0.23;66.94;94773.53;5025368;28;20056;-79
2022/01/14 08:54:40;;;;;;;7.82;3.50;;;;;;;-0.30;67.55;94753.69;5025144;28;20092;-81
2022/01/14 08:57:06;;;;;;;9.30;3.75;;;;;;;-0.25;67.42;94751.97;5040563;28;20026;-81
2022/01/14 08:59:32;;;;;;;6.55;3.53;;;;;;;-0.18;66.55;94765.00;5025482;28;20060;-84
2022/01/14 09:01:59;;;;;;;11.52;4.20;;;;;;;-0.27;67.29;94758.47;5025207;28;20254;-82
2022/01/14 09:04:24;;;;;;;8.77;3.83;;;;;;;-0.30;67.90;94748.47;5024848;28;20029;-81
2022/01/14 09:06:50;;;;;;;6.50;3.03;;;;;;;-0.29;66.99;94777.03;5025095;28;20101;-78
2022/01/14 09:09:15;;;;;;;9.38;3.92;;;;;;;-0.24;67.37;94761.47;5024944;28;20017;-77
2022/01/14 09:11:41;;;;;;;5.55;2.78;;;;;;;-0.32;66.76;94787.97;5040237;28;20258;-78
2022/01/14 09:14:07;;;;;;;5.70;2.90;;;;;;;-0.25;67.24;94748.56;5024728;28;20390;-81
2022/01/14 09:16:33;;;;;;;9.95;3.30;;;;;;;-0.16;66.96;94744.63;5024854;28;20021;-79
2022/01/14 09:18:59;;;;;;;15.45;5.53;;;;;;;-0.02;66.87;94755.69;5024737;28;20159;-81
2022/01/14 09:21:24;;;;;;;11.05;4.40;;;;;;;-0.07;65.95;94732.78;5024731;28;20026;-82
2022/01/14 09:24:03;;;;;;;9.10;3.53;;;;;;;-0.01;65.68;94725.84;5039451;28;20025;-81
2022/01/14 09:26:33;;;;;;;7.55;2.97;;;;;;;-0.04;65.39;94742.00;5024609;28;20048;-81
2022/01/14 09:29:00;;;;;;;9.82;4.75;;;;;;;0.07;66.72;94740.44;5024644;28;20022;-81
2022/01/14 09:31:25;;;;;;;9.85;4.13;;;;;;;0.03;65.56;94721.75;5024418;28;20025;-81
2022/01/14 09:33:51;;;;;;;6.05;2.83;;;;;;;0.10;65.66;94713.78;5024467;28;20028;-80
2022/01/14 09:36:16;;;;;;;12.15;4.55;;;;;;;0.17;65.37;94712.66;5024449;28;20041;-79
2022/01/14 09:38:42;;;;;;;9.48;3.88;;;;;;;0.06;64.51;94718.69;5039544;28;20034;-82
2022/01/14 09:41:08;;;;;;;6.68;3.38;;;;;;;0.23;64.03;94710.16;5039918;28;20076;-85
2022/01/14 09:43:36;;;;;;;7.38;2.83;;;;;;;0.20;63.99;94711.38;5024595;28;20399;-82
2022/01/14 09:46:05;;;;;;;7.68;3.60;;;;;;;0.19;64.50;94707.97;5024521;28;20026;-84
2022/01/14 09:48:31;;;;;;;9.20;3.45;;;;;;;0.27;64.22;94745.38;5024512;28;20028;-83
2022/01/14 09:50:58;;;;;;;8.82;3.65;;;;;;;0.28;64.44;94752.22;5024441;28;20029;-83
2022/01/14 09:53:25;;;;;;;6.78;3.92;;;;;;;0.27;64.35;94706.06;5023218;28;20013;-82
2022/01/14 09:55:51;;;;;;;8.63;2.92;;;;;;;0.20;64.35;94703.53;5024138;28;20022;-82
2022/01/14 09:58:17;;;;;;;10.35;3.40;;;;;;;0.32;64.71;94704.31;5022869;28;20296;-78
2022/01/14 10:00:43;;;;;;;17.30;5.30;;;;;;;0.43;65.23;94679.16;5039240;28;20089;-82
2022/01/14 10:03:25;;;;;;;16.13;4.30;;;;;;;0.52;64.01;94658.59;5023935;28;20033;-80
2022/01/14 10:05:55;;;;;;;8.70;4.70;;;;;;;0.67;64.13;94647.63;5022601;28;20025;-79
2022/01/14 10:08:26;;;;;;;11.45;3.90;;;;;;;0.63;63.45;94664.84;5023883;28;20080;-77
2022/01/14 10:11:00;;;;;;;10.52;4.22;;;;;;;0.64;62.97;94653.34;5023682;28;20040;-79
2022/01/14 10:13:30;;;;;;;6.53;3.28;;;;;;;0.63;63.31;94647.28;5023971;28;20083;-77
2022/01/14 10:16:02;;;;;;;14.48;4.03;;;;;;;0.56;64.14;94647.41;5023448;28;20089;-76
2022/01/14 10:18:28;;;;;;;6.30;3.42;;;;;;;0.63;63.48;94641.22;5022382;28;20216;-77
2022/01/14 10:21:03;;;;;;;10.00;4.32;;;;;;;0.70;64.02;94641.91;5023577;28;20044;-78
2022/01/14 10:23:49;;;;;;;7.90;3.83;;;;;;;0.68;63.32;94639.53;5023829;28;20030;-79
2022/01/14 10:26:15;;;;;;;8.98;4.25;;;;;;;0.60;64.30;94626.75;5023765;28;20064;-77
2022/01/14 10:28:45;;;;;;;9.20;3.45;;;;;;;0.67;63.47;94629.25;5023687;28;20025;-80
2022/01/14 10:31:11;;;;;;;8.40;4.57;;;;;;;0.65;64.18;94612.94;5023520;28;20022;-80
2022/01/14 10:33:37;;;;;;;13.68;3.30;;;;;;;0.73;64.64;94620.44;5023580;28;20347;-82
2022/01/14 10:36:04;;;;;;;14.13;4.30;;;;;;;0.78;63.54;94615.31;5022552;28;20030;-82
2022/01/14 10:38:38;;;;;;;10.25;4.30;;;;;;;0.69;63.50;94627.19;5023734;28;20041;-83
2022/01/14 10:41:08;;;;;;;7.60;4.13;;;;;;;0.56;63.97;94618.56;5038663;28;20093;-83
2022/01/14 10:43:36;;;;;;;13.95;5.38;;;;;;;0.62;64.53;94608.19;5023473;28;20216;-84
2022/01/14 10:46:06;;;;;;;10.23;4.10;;;;;;;0.73;64.19;94630.94;5024571;28;20018;-83
2022/01/14 10:48:35;;;;;;;13.45;4.10;;;;;;;0.67;63.47;94613.50;5023342;28;20320;-84
2022/01/14 10:51:11;;;;;;;7.32;3.85;;;;;;;0.83;63.49;94604.09;5038935;28;20025;-84
2022/01/14 10:53:39;;;;;;;9.23;4.47;;;;;;;0.85;63.31;94584.47;5038593;28;20117;-83
2022/01/14 10:56:13;;;;;;;11.43;3.72;;;;;;;0.89;62.57;94582.19;5038284;28;20028;-84
2022/01/14 10:58:44;;;;;;;7.75;3.05;;;;;;;0.96;62.97;94564.47;5022820;28;20022;-84
2022/01/14 11:01:14;;;;;;;9.73;3.25;;;;;;;1.11;62.11;94563.94;5023010;28;20220;-84
2022/01/14 11:03:45;;;;;;;10.63;3.15;;;;;;;1.25;62.00;94570.47;5022955;28;20300;-84
2022/01/14 11:06:24;;;;;;;8.60;3.90;;;;;;;1.34;61.34;94568.25;5038220;28;20256;-83
2022/01/14 11:08:56;;;;;;;10.60;4.00;;;;;;;1.44;61.59;94557.91;5021800;28;20072;-83
2022/01/14 11:11:23;;;;;;;8.90;2.72;;;;;;;1.60;60.63;94566.84;5022874;28;20336;-85
2022/01/14 11:13:48;;;;;;;11.25;4.47;;;;;;;1.75;60.70;94550.50;5025006;28;20087;-84
2022/01/14 11:16:14;;;;;;;8.18;3.70;;;;;;;1.79;60.48;94575.25;5022835;28;20025;-84
2022/01/14 11:18:40;;;;;;;7.90;2.70;;;;;;;1.86;59.72;94548.81;5022866;28;20022;-85
2022/01/14 11:23:50;;;;;;;7.18;3.17;;;;;;;1.96;59.34;94541.88;5022836;28;20076;-85
2022/01/14 11:26:19;;;;;;;9.90;3.75;;;;;;;2.10;59.61;94538.91;5022988;28;20022;-85
2022/01/14 11:28:46;;;;;;;6.18;2.90;;;;;;;2.20;59.05;94524.03;5021834;28;20021;-86
2022/01/14 11:31:32;;;;;;;7.50;3.28;;;;;;;2.27;58.73;94518.59;5022796;28;20022;-84
2022/01/14 11:33:59;;;;;;;7.32;3.65;;;;;;;2.27;58.98;94515.19;5022119;28;20021;-87
2022/01/14 11:36:45;;;;;;;8.30;3.30;;;;;;;2.33;58.29;94514.19;5038504;28;20216;-85
2022/01/14 11:39:22;;;;;;;6.38;2.80;;;;;;;2.41;58.81;94503.25;5022595;28;20045;-85
2022/01/14 11:41:53;;;;;;;4.50;2.67;;;;;;;2.46;57.51;94497.25;5021647;28;20029;-85
2022/01/14 11:44:41;;;;;;;4.85;2.42;;;;;;;2.43;57.40;94495.13;5038324;28;20072;-83
2022/01/14 11:47:07;;;;;;;4.78;2.35;;;;;;;2.57;57.37;94493.69;5039610;28;20022;-85
2022/01/14 11:49:37;;;;;;;5.18;2.58;;;;;;;2.67;56.72;94490.38;5027558;28;20013;-90
2022/01/14 11:52:06;;;;;;;6.10;2.40;;;;;;;2.64;56.29;94480.31;5027097;28;20109;-86
2022/01/14 11:54:37;;;;;;;4.35;2.22;;;;;;;2.69;57.04;94464.59;5026750;28;20044;-85
2022/01/14 11:57:03;;;;;;;7.80;2.90;;;;;;;2.83;56.47;94470.25;5041978;28;20021;-85
2022/01/14 11:59:28;;;;;;;8.60;2.42;;;;;;;2.87;56.62;94461.63;5041955;28;20320;-80